createdAt,value
2022-12-25T00:04:50.403Z,59.45
2022-12-25T00:09:53.931Z,58.65
2022-12-25T00:14:57.466Z,63.30
2022-12-25T00:20:02.372Z,56.50
2022-12-25T00:25:06.534Z,66.85
2022-12-25T00:30:11.164Z,59.88
2022-12-25T00:35:16.124Z,56.65
2022-12-25T00:40:19.842Z,57.03
2022-12-25T00:45:23.642Z,58.60
2022-12-25T00:50:28.556Z,63.35
2022-12-25T00:55:32.338Z,60.22
2022-12-25T01:00:35.964Z,61.92
2022-12-25T01:05:40.989Z,46.90
2022-12-25T01:10:44.510Z,48.60
2022-12-25T01:15:48.111Z,50.50
2022-12-25T01:20:53.278Z,59.10
2022-12-25T01:25:56.852Z,49.20
2022-12-25T01:31:00.445Z,52.38
2022-12-25T01:36:06.298Z,51.95
2022-12-25T01:41:09.875Z,51.63
2022-12-25T01:46:13.449Z,51.35
2022-12-25T01:51:25.056Z,48.13
2022-12-25T01:56:30.362Z,54.15
2022-12-25T02:01:34.061Z,59.88
2022-12-25T02:06:39.212Z,65.40
2022-12-25T02:11:57.994Z,62.53
2022-12-25T02:17:08.680Z,57.40
2022-12-25T02:22:22.479Z,56.60
2022-12-25T02:27:47.759Z,61.38
2022-12-25T02:33:19.697Z,61.03
2022-12-25T02:38:28.721Z,54.17
2022-12-25T02:43:55.290Z,56.42
2022-12-25T02:49:19.887Z,51.08
2022-12-25T02:54:45.921Z,57.72
2022-12-25T03:00:10.940Z,56.70
2022-12-25T03:05:35.566Z,55.25
2022-12-25T03:11:14.609Z,59.65
2022-12-25T03:16:38.625Z,61.55
2022-12-25T03:21:59.613Z,66.75
2022-12-25T03:27:04.109Z,61.10
2022-12-25T03:32:19.886Z,57.13
2022-12-25T03:38:02.786Z,57.00
2022-12-25T03:43:45.673Z,59.88
2022-12-25T03:49:14.954Z,57.60
2022-12-25T03:54:42.101Z,55.20
2022-12-25T04:00:03.386Z,48.35
2022-12-25T04:05:31.421Z,55.10
2022-12-25T04:16:39.460Z,57.03
2022-12-25T04:22:13.235Z,47.05
2022-12-25T04:27:34.336Z,50.42
2022-12-25T04:32:55.166Z,50.85
2022-12-25T04:38:00.174Z,47.92
2022-12-25T04:43:03.738Z,51.40
2022-12-25T04:48:07.602Z,47.00
2022-12-25T04:53:12.548Z,44.90
2022-12-25T04:58:16.250Z,49.63
2022-12-25T05:03:19.927Z,49.00
2022-12-25T05:08:24.927Z,48.65
2022-12-25T05:13:28.503Z,44.78
2022-12-25T05:18:32.046Z,44.78
2022-12-25T05:23:36.971Z,39.33
2022-12-25T05:28:40.569Z,45.90
2022-12-25T05:33:44.132Z,49.03
2022-12-25T05:38:49.054Z,49.72
2022-12-25T05:43:53.776Z,47.20
2022-12-25T05:48:57.302Z,62.47
2022-12-25T05:54:02.376Z,62.22
2022-12-25T05:59:06.030Z,65.18
2022-12-25T06:04:12.662Z,47.25
2022-12-25T06:09:18.033Z,61.90
2022-12-25T06:14:21.555Z,47.83
2022-12-25T06:19:25.202Z,53.65
2022-12-25T06:24:30.260Z,58.65
2022-12-25T06:29:33.877Z,62.35
2022-12-25T06:34:37.639Z,58.88
2022-12-25T06:39:42.827Z,55.92
2022-12-25T06:44:59.504Z,49.88
2022-12-25T06:50:03.581Z,59.65
2022-12-25T06:55:09.424Z,54.33
2022-12-25T07:00:13.824Z,52.10
2022-12-25T07:05:17.717Z,55.90
2022-12-25T07:10:22.658Z,52.00
2022-12-25T07:15:26.240Z,57.83
2022-12-25T07:20:30.999Z,57.05
2022-12-25T07:25:37.638Z,55.80
2022-12-25T07:30:41.356Z,56.90
2022-12-25T07:35:45.347Z,59.35
2022-12-25T07:40:51.127Z,59.30
2022-12-25T07:45:58.791Z,68.05
2022-12-25T07:51:05.113Z,55.40
2022-12-25T07:56:13.580Z,50.63
2022-12-25T08:01:20.223Z,54.00
2022-12-25T08:06:26.954Z,73.35
2022-12-25T08:11:32.084Z,58.60
2022-12-25T08:16:36.331Z,53.05
2022-12-25T08:21:40.062Z,40.03
2022-12-25T08:26:45.042Z,52.38
2022-12-25T08:31:48.629Z,62.22
2022-12-25T08:36:52.137Z,58.33
2022-12-25T08:41:57.089Z,43.90
2022-12-25T08:47:00.673Z,36.85
2022-12-25T08:52:04.396Z,40.72
2022-12-25T08:57:09.445Z,45.38
2022-12-25T09:02:13.912Z,44.45
2022-12-25T09:07:17.781Z,43.83
2022-12-25T09:12:22.934Z,55.53
2022-12-25T09:17:26.645Z,45.63
2022-12-25T09:22:30.405Z,39.58
2022-12-25T09:27:35.467Z,38.85
2022-12-25T09:32:40.469Z,36.08
2022-12-25T09:37:44.090Z,42.85
2022-12-25T09:42:50.569Z,36.70
2022-12-25T09:47:57.535Z,37.40
2022-12-25T09:53:07.422Z,44.60
2022-12-25T09:58:13.910Z,49.70
2022-12-25T10:03:30.071Z,50.17
2022-12-25T10:08:49.566Z,32.60
2022-12-25T10:14:10.594Z,34.67
2022-12-25T10:19:41.997Z,36.08
2022-12-25T10:24:49.282Z,31.98
2022-12-25T10:29:55.519Z,56.60
2022-12-25T10:34:59.093Z,54.03
2022-12-25T10:40:02.905Z,30.40
2022-12-25T10:45:10.384Z,43.92
2022-12-25T10:50:21.102Z,22.80
2022-12-25T10:55:28.667Z,32.28
2022-12-25T11:00:35.116Z,52.75
2022-12-25T11:05:38.899Z,78.68
2022-12-25T11:10:44.107Z,56.28
2022-12-25T11:15:50.448Z,25.92
2022-12-25T11:20:56.259Z,18.40
2022-12-25T11:26:02.614Z,16.35
2022-12-25T11:31:10.459Z,34.35
2022-12-25T11:36:21.340Z,45.97
2022-12-25T11:41:34.989Z,29.13
2022-12-25T11:46:47.083Z,50.75
2022-12-25T11:51:54.861Z,28.90
2022-12-25T11:57:01.806Z,17.88
2022-12-25T12:02:23.971Z,33.08
2022-12-25T12:07:31.075Z,58.65
2022-12-25T12:12:46.645Z,24.40
2022-12-25T12:17:53.681Z,22.60
2022-12-25T12:22:57.991Z,22.85
2022-12-25T12:28:05.724Z,22.23
2022-12-25T12:33:21.748Z,22.77
2022-12-25T12:38:27.191Z,28.15
2022-12-25T12:43:35.847Z,36.42
2022-12-25T12:48:43.925Z,34.63
2022-12-25T12:53:47.550Z,21.08
2022-12-25T12:58:52.058Z,18.60
2022-12-25T13:04:17.732Z,19.52
2022-12-25T13:09:32.372Z,18.23
2022-12-25T13:14:38.015Z,15.43
2022-12-25T13:19:44.589Z,20.58
2022-12-25T13:24:57.096Z,18.73
2022-12-25T13:30:01.016Z,24.75
2022-12-25T13:35:12.859Z,18.02
2022-12-25T13:40:24.349Z,30.45
2022-12-25T13:45:30.242Z,17.83
2022-12-25T13:50:36.034Z,18.92
2022-12-25T13:55:39.732Z,22.15
2022-12-25T14:00:50.981Z,36.00
2022-12-25T14:06:00.500Z,52.85
2022-12-25T14:11:07.166Z,36.90
2022-12-25T14:16:11.945Z,40.42
2022-12-25T14:21:23.286Z,35.55
2022-12-25T14:26:29.667Z,34.53
2022-12-25T14:31:34.829Z,32.28
2022-12-25T14:36:40.529Z,25.27
2022-12-25T14:41:54.134Z,26.13
2022-12-25T14:47:06.020Z,23.75
2022-12-25T14:52:18.703Z,27.75
2022-12-25T14:57:28.282Z,27.05
2022-12-25T15:07:45.137Z,37.63
2022-12-25T15:12:48.661Z,40.63
2022-12-25T15:17:53.254Z,40.90
2022-12-25T15:23:18.845Z,49.05
2022-12-25T15:28:22.840Z,40.78
2022-12-25T15:33:26.415Z,40.83
2022-12-25T15:38:36.577Z,40.70
2022-12-25T15:43:41.283Z,43.83
2022-12-25T15:48:45.313Z,90.55
2022-12-25T15:53:50.491Z,84.80
2022-12-25T15:58:54.300Z,63.53
2022-12-25T16:03:58.456Z,32.60
2022-12-25T16:09:03.788Z,53.92
2022-12-25T16:14:07.897Z,64.88
2022-12-25T16:19:11.874Z,62.85
2022-12-25T16:24:18.071Z,58.22
2022-12-25T16:29:21.975Z,41.00
2022-12-25T16:34:26.052Z,44.00
2022-12-25T16:39:30.972Z,49.35
2022-12-25T16:44:37.416Z,43.85
2022-12-25T16:49:40.974Z,61.63
2022-12-25T16:54:47.925Z,55.45
2022-12-25T16:59:51.593Z,55.53
2022-12-25T17:04:55.314Z,42.65
2022-12-25T17:10:00.255Z,46.35
2022-12-25T17:15:03.859Z,43.40
2022-12-25T17:20:08.825Z,49.35
2022-12-25T17:25:13.844Z,45.90
2022-12-25T17:30:18.076Z,56.10
2022-12-25T17:35:23.500Z,86.53
2022-12-25T17:40:29.853Z,107.25
2022-12-25T17:45:33.441Z,77.78
2022-12-25T17:50:41.315Z,78.13
2022-12-25T17:55:46.643Z,78.22
2022-12-25T18:00:50.249Z,74.72
2022-12-25T18:05:53.830Z,71.93
2022-12-25T18:11:04.553Z,74.47
2022-12-25T18:16:08.860Z,76.68
2022-12-25T18:21:12.719Z,65.97
2022-12-25T18:26:17.952Z,76.35
2022-12-25T18:31:24.119Z,91.10
2022-12-25T18:36:29.422Z,83.10
2022-12-25T18:41:54.517Z,71.00
2022-12-25T18:46:58.109Z,96.03
2022-12-25T18:52:50.372Z,142.73
2022-12-25T18:57:26.751Z,100.05
2022-12-25T19:02:30.758Z,63.40
2022-12-25T19:07:34.835Z,61.88
2022-12-25T19:12:39.751Z,143.90
2022-12-25T19:17:43.333Z,75.07
2022-12-25T19:22:47.216Z,68.80
2022-12-25T19:27:52.219Z,54.67
2022-12-25T19:32:55.847Z,60.45
2022-12-25T19:37:59.455Z,52.85
2022-12-25T19:43:04.506Z,58.08
2022-12-25T19:48:08.099Z,51.47
2022-12-25T19:53:11.825Z,51.65
2022-12-25T19:58:17.982Z,62.53
2022-12-25T20:03:21.622Z,76.53
2022-12-25T20:08:25.642Z,58.42
2022-12-25T20:13:30.619Z,55.33
2022-12-25T20:18:34.151Z,51.30
2022-12-25T20:23:37.910Z,66.70
2022-12-25T20:28:44.192Z,54.47
2022-12-25T20:33:48.050Z,59.33
2022-12-25T20:38:51.794Z,67.15
2022-12-25T20:43:57.117Z,79.57
2022-12-25T20:49:02.647Z,79.00
2022-12-25T20:54:08.579Z,130.07
2022-12-25T20:59:13.721Z,110.00
2022-12-25T21:04:17.560Z,94.38
2022-12-25T21:09:21.438Z,69.93
2022-12-25T21:14:26.391Z,136.45
2022-12-25T21:19:29.999Z,75.43
2022-12-25T21:24:33.715Z,84.00
2022-12-25T21:29:38.943Z,78.13
2022-12-25T21:34:42.565Z,73.10
2022-12-25T21:39:46.774Z,117.00
2022-12-25T21:44:51.965Z,67.22
2022-12-25T21:50:12.753Z,68.97
2022-12-25T21:55:16.592Z,68.93
2022-12-25T22:00:21.872Z,60.42
2022-12-25T22:05:43.124Z,62.53
2022-12-25T22:10:46.661Z,61.85
2022-12-25T22:16:09.886Z,98.47
2022-12-25T22:21:19.569Z,62.45
2022-12-25T22:26:23.251Z,71.15
2022-12-25T22:31:28.420Z,66.35
2022-12-25T22:36:32.111Z,85.07
2022-12-25T22:41:35.838Z,94.32
2022-12-25T22:46:40.843Z,59.25
2022-12-25T22:51:44.746Z,53.47
2022-12-25T22:56:51.347Z,118.82
2022-12-25T23:01:56.651Z,66.50
2022-12-25T23:07:00.277Z,56.00
2022-12-25T23:12:03.835Z,58.17
2022-12-25T23:17:29.870Z,56.33
2022-12-25T23:22:58.409Z,177.75
2022-12-25T23:28:02.001Z,107.32
2022-12-25T23:33:06.971Z,58.60
2022-12-25T23:38:10.557Z,52.33
2022-12-25T23:43:14.123Z,46.38
2022-12-25T23:48:19.107Z,49.10
2022-12-25T23:53:22.665Z,52.42
2022-12-25T23:58:26.255Z,50.28
